HKMO

Moi International Airport

Airport
ICAO code
HKMO
IATA Code
MBA
Summary
ICAO Region
AFI
ICAO Territory
Location

Mombasa, Mombasa County

Serving
Mombasa
Elevation
200 ft
Coordinates
4° 1' 37" S , 39° 36' 5" E
KCC
As
Metar
Observation
HKMO 121430Z 15013KT 9999 SCT025 BKN080 25/19 Q1014 NOSIG
Station
Mombasa
Date/Time
2022-08-12 14:30:00
Wind direction
150°
Wind speed
13 kts
Lowest cloud amount
scattered clouds
Temperature
25°C
Dew point
19°C
Humidity
69%
QNH
1014 hPa
Weather condition
n/a

International airport serving Mombasa, Kenya.

Climatology

Tropical Savanna climate (Köppen climate classification As)

Runways

Designator Length Width Surface Rops
15/33 1363 36 ASP Yes/Yes
3/21 3350 46 ASP Yes/Yes

Airport map

Aerial View

SKYbrary Partners:

Safety knowledge contributed by: